Ukkel, België

2:04 AM CET op 27 januari 2015 (GMT +0100)
Brussels National | Change Station
CLOSE
Current Station
Luchthaven
Location: Brussels,
Geometrische hoogte: 190 ft
Nabije weerstations

Hoogte 190 ft 50.90 °N, 4.53 °E | Updated 14 minutes ago

Light Rain
Lichte regen
39 °F
Voelt als 32 °F
N
12
Wind Variabel Wind van WNW

Vandaag
Hoog -- | Laag -- °F
--% Kans op neerslag
Gisteren
Hoog -- | Laag -- °F
Precip. -- inches
8:26 AM 5:25 PM
Wassende halvemaan, 48% visible
Druk 30.21 inches
Zicht 6.2 mijlen
Wolken Gering 1000 ft
Licht bewolkt 4000 ft
Gevoelstemperatuur 32 °F
Dauwpunt 34 °F
Vochtigheid 81%
Neerslag 0.00 inches
Dikte sneeuw Niet beschikbaar.
UV 0 van de 12
Pollen Niet beschikbaar.
Luchtkwaliteit Niet beschikbaar.
Flu Activity Niet beschikbaar.
METAR EBBR 270050Z 30010KT 9999 -RA FEW010 SCT040 04/01 Q1023 NOSIG

More Conditions Fewer Conditions

Druk 30.21 inches
Zicht 6.2 mijlen
Wolken Gering 1000 ft
Licht bewolkt 4000 ft
Gevoelstemperatuur 32 °F
Dauwpunt 34 °F
Vochtigheid 81%
Neerslag 0.00 inches
Dikte sneeuw Niet beschikbaar.
UV 0 van de 12
Pollen Niet beschikbaar.
Luchtkwaliteit Niet beschikbaar.
Flu Activity Niet beschikbaar.
METAR EBBR 270050Z 30010KT 9999 -RA FEW010 SCT040 04/01 Q1023 NOSIG

More Conditions Fewer Conditions

10-Day Weather Forecast

Almanac

Astronomie

Jan. 27, 2015 Opkomst Ondergang
Werkelijke tijd
Burgerlijke schemering
Nautische schemering
Astronomische schemering
Maan
Golflengte van het zichtbare licht
Daglengte
Tomorrow will be .
, % of the Moon is Illuminated

Extremen vandaag

Country Highs Country Lows

Community

WunderPhotos

Upload Photos

1,790,441 foto’s ge-upload!

WunderBlogs® & News

Nearby

Luchtkwaliteit

  Luchtkwaliteit LK-index Verontreinigende stof
Not available.

Dikte sneeuw

Station Depth Geometrische hoogte

Aardbevingen

Stad Distance Mag. Time & Date
Minimum magnitude displayed is 2.5.

Watertemperatuur langs de kust

Plaats Temperatuur

Nabije weerstations